sensor_id;sensor_type;location;lat;lon;timestamp;P1;durP1;ratioP1;P2;durP2;ratioP2
35977;SDS011;22056;0.000;0.000;2022-08-18T00:00:46;5.45;;;2.65;;
35977;SDS011;22056;0.000;0.000;2022-08-18T00:03:12;2.92;;;2.60;;
35977;SDS011;22056;0.000;0.000;2022-08-18T00:05:39;3.17;;;2.80;;
35977;SDS011;22056;0.000;0.000;2022-08-18T00:08:05;2.60;;;2.40;;
35977;SDS011;22056;0.000;0.000;2022-08-18T00:10:32;4.00;;;2.78;;
35977;SDS011;22056;0.000;0.000;2022-08-18T00:12:58;2.53;;;2.20;;
35977;SDS011;22056;0.000;0.000;2022-08-18T00:15:25;2.97;;;2.17;;
35977;SDS011;22056;0.000;0.000;2022-08-18T00:17:51;1.95;;;1.85;;
35977;SDS011;22056;0.000;0.000;2022-08-18T00:20:22;3.45;;;2.58;;
35977;SDS011;22056;0.000;0.000;2022-08-18T00:22:49;2.78;;;2.33;;
35977;SDS011;22056;0.000;0.000;2022-08-18T00:25:17;2.67;;;2.35;;
35977;SDS011;22056;0.000;0.000;2022-08-18T00:27:44;3.78;;;2.45;;
35977;SDS011;22056;0.000;0.000;2022-08-18T00:30:14;2.45;;;2.22;;
35977;SDS011;22056;0.000;0.000;2022-08-18T00:32:42;2.75;;;2.28;;
35977;SDS011;22056;0.000;0.000;2022-08-18T00:35:11;2.42;;;2.17;;
35977;SDS011;22056;0.000;0.000;2022-08-18T00:37:41;2.30;;;1.90;;
35977;SDS011;22056;0.000;0.000;2022-08-18T00:40:08;2.60;;;2.28;;
35977;SDS011;22056;0.000;0.000;2022-08-18T00:42:41;2.67;;;2.08;;
35977;SDS011;22056;0.000;0.000;2022-08-18T00:45:08;2.35;;;2.15;;
35977;SDS011;22056;0.000;0.000;2022-08-18T00:47:37;2.15;;;1.83;;
35977;SDS011;22056;0.000;0.000;2022-08-18T00:50:03;2.28;;;2.08;;
35977;SDS011;22056;0.000;0.000;2022-08-18T00:52:30;2.55;;;2.08;;
35977;SDS011;22056;0.000;0.000;2022-08-18T00:54:56;2.50;;;2.05;;
35977;SDS011;22056;0.000;0.000;2022-08-18T00:57:23;2.65;;;1.73;;
35977;SDS011;22056;0.000;0.000;2022-08-18T00:59:52;2.63;;;1.67;;
35977;SDS011;22056;0.000;0.000;2022-08-18T01:02:24;4.05;;;2.08;;
35977;SDS011;22056;0.000;0.000;2022-08-18T01:07:47;2.20;;;1.80;;
35977;SDS011;22056;0.000;0.000;2022-08-18T01:10:14;2.13;;;1.90;;
35977;SDS011;22056;0.000;0.000;2022-08-18T01:12:45;3.20;;;1.83;;
35977;SDS011;22056;0.000;0.000;2022-08-18T01:15:12;2.08;;;1.77;;
35977;SDS011;22056;0.000;0.000;2022-08-18T01:17:39;3.22;;;1.80;;
35977;SDS011;22056;0.000;0.000;2022-08-18T01:20:32;1.70;;;1.60;;
35977;SDS011;22056;0.000;0.000;2022-08-18T01:23:18;2.17;;;1.80;;
35977;SDS011;22056;0.000;0.000;2022-08-18T01:25:45;1.60;;;1.50;;
35977;SDS011;22056;0.000;0.000;2022-08-18T01:28:25;2.35;;;1.60;;
35977;SDS011;22056;0.000;0.000;2022-08-18T01:30:52;1.98;;;1.70;;
35977;SDS011;22056;0.000;0.000;2022-08-18T01:33:26;2.50;;;1.80;;
35977;SDS011;22056;0.000;0.000;2022-08-18T01:35:57;2.10;;;1.63;;
35977;SDS011;22056;0.000;0.000;2022-08-18T01:38:24;2.42;;;2.13;;
35977;SDS011;22056;0.000;0.000;2022-08-18T01:40:51;1.80;;;1.45;;
35977;SDS011;22056;0.000;0.000;2022-08-18T01:43:18;1.90;;;1.60;;
35977;SDS011;22056;0.000;0.000;2022-08-18T01:45:45;2.22;;;2.00;;
35977;SDS011;22056;0.000;0.000;2022-08-18T01:48:12;1.95;;;1.67;;
35977;SDS011;22056;0.000;0.000;2022-08-18T01:50:38;2.15;;;1.63;;
35977;SDS011;22056;0.000;0.000;2022-08-18T01:53:07;1.50;;;1.40;;
35977;SDS011;22056;0.000;0.000;2022-08-18T01:55:36;1.67;;;1.58;;
35977;SDS011;22056;0.000;0.000;2022-08-18T01:58:03;2.00;;;1.50;;
35977;SDS011;22056;0.000;0.000;2022-08-18T02:00:29;1.80;;;1.70;;
35977;SDS011;22056;0.000;0.000;2022-08-18T02:02:56;4.40;;;2.03;;
35977;SDS011;22056;0.000;0.000;2022-08-18T02:05:31;2.00;;;1.70;;
35977;SDS011;22056;0.000;0.000;2022-08-18T02:07:57;1.60;;;1.30;;
35977;SDS011;22056;0.000;0.000;2022-08-18T02:10:24;1.70;;;1.60;;
35977;SDS011;22056;0.000;0.000;2022-08-18T02:12:51;2.15;;;1.80;;
35977;SDS011;22056;0.000;0.000;2022-08-18T02:15:18;1.58;;;1.30;;
35977;SDS011;22056;0.000;0.000;2022-08-18T02:17:44;1.90;;;1.60;;
35977;SDS011;22056;0.000;0.000;2022-08-18T02:20:13;1.90;;;1.50;;
35977;SDS011;22056;0.000;0.000;2022-08-18T02:22:40;1.70;;;1.60;;
35977;SDS011;22056;0.000;0.000;2022-08-18T02:25:06;1.95;;;1.55;;
35977;SDS011;22056;0.000;0.000;2022-08-18T02:27:33;2.58;;;1.98;;
35977;SDS011;22056;0.000;0.000;2022-08-18T02:29:59;1.92;;;1.73;;
35977;SDS011;22056;0.000;0.000;2022-08-18T02:32:26;1.90;;;1.60;;
35977;SDS011;22056;0.000;0.000;2022-08-18T02:34:53;2.20;;;1.67;;
35977;SDS011;22056;0.000;0.000;2022-08-18T02:37:19;2.28;;;1.58;;
35977;SDS011;22056;0.000;0.000;2022-08-18T02:39:46;1.70;;;1.48;;
35977;SDS011;22056;0.000;0.000;2022-08-18T02:42:13;2.10;;;1.77;;
35977;SDS011;22056;0.000;0.000;2022-08-18T02:44:39;2.13;;;1.60;;
35977;SDS011;22056;0.000;0.000;2022-08-18T02:47:06;1.67;;;1.52;;
35977;SDS011;22056;0.000;0.000;2022-08-18T02:49:32;1.80;;;1.60;;
35977;SDS011;22056;0.000;0.000;2022-08-18T02:51:58;1.50;;;1.40;;
35977;SDS011;22056;0.000;0.000;2022-08-18T02:54:24;2.35;;;2.00;;
35977;SDS011;22056;0.000;0.000;2022-08-18T02:56:51;1.50;;;1.40;;
35977;SDS011;22056;0.000;0.000;2022-08-18T02:59:18;1.70;;;1.60;;
35977;SDS011;22056;0.000;0.000;2022-08-18T03:01:46;1.50;;;1.40;;
35977;SDS011;22056;0.000;0.000;2022-08-18T03:04:13;1.40;;;1.30;;
35977;SDS011;22056;0.000;0.000;2022-08-18T03:06:40;1.65;;;1.55;;
35977;SDS011;22056;0.000;0.000;2022-08-18T03:09:07;1.83;;;1.40;;
35977;SDS011;22056;0.000;0.000;2022-08-18T03:11:34;2.03;;;1.50;;
35977;SDS011;22056;0.000;0.000;2022-08-18T03:14:01;3.10;;;1.80;;
35977;SDS011;22056;0.000;0.000;2022-08-18T03:16:29;1.60;;;1.50;;
35977;SDS011;22056;0.000;0.000;2022-08-18T03:18:57;1.35;;;1.25;;
35977;SDS011;22056;0.000;0.000;2022-08-18T03:21:24;1.45;;;1.35;;
35977;SDS011;22056;0.000;0.000;2022-08-18T03:23:51;1.50;;;1.40;;
35977;SDS011;22056;0.000;0.000;2022-08-18T03:26:18;1.67;;;1.58;;
35977;SDS011;22056;0.000;0.000;2022-08-18T03:28:46;1.60;;;1.50;;
35977;SDS011;22056;0.000;0.000;2022-08-18T03:31:14;2.13;;;1.60;;
35977;SDS011;22056;0.000;0.000;2022-08-18T03:33:41;1.40;;;1.30;;
35977;SDS011;22056;0.000;0.000;2022-08-18T03:36:09;1.40;;;1.30;;
35977;SDS011;22056;0.000;0.000;2022-08-18T03:38:36;1.73;;;1.50;;
35977;SDS011;22056;0.000;0.000;2022-08-18T03:41:04;1.50;;;1.40;;
35977;SDS011;22056;0.000;0.000;2022-08-18T03:43:30;1.60;;;1.50;;
35977;SDS011;22056;0.000;0.000;2022-08-18T03:46:00;1.40;;;1.30;;
35977;SDS011;22056;0.000;0.000;2022-08-18T03:48:27;1.50;;;1.40;;
35977;SDS011;22056;0.000;0.000;2022-08-18T03:50:53;2.35;;;1.45;;
35977;SDS011;22056;0.000;0.000;2022-08-18T03:53:19;2.38;;;1.83;;
35977;SDS011;22056;0.000;0.000;2022-08-18T03:55:46;1.60;;;1.50;;
35977;SDS011;22056;0.000;0.000;2022-08-18T03:58:12;1.90;;;1.80;;
35977;SDS011;22056;0.000;0.000;2022-08-18T04:03:22;1.60;;;1.50;;
35977;SDS011;22056;0.000;0.000;2022-08-18T04:05:49;1.42;;;1.33;;
35977;SDS011;22056;0.000;0.000;2022-08-18T04:08:15;1.40;;;1.30;;
35977;SDS011;22056;0.000;0.000;2022-08-18T04:10:42;1.65;;;1.50;;
35977;SDS011;22056;0.000;0.000;2022-08-18T04:13:08;1.50;;;1.02;;
35977;SDS011;22056;0.000;0.000;2022-08-18T04:15:35;2.70;;;1.45;;
35977;SDS011;22056;0.000;0.000;2022-08-18T04:18:02;2.75;;;1.23;;
35977;SDS011;22056;0.000;0.000;2022-08-18T04:20:29;1.73;;;1.38;;
35977;SDS011;22056;0.000;0.000;2022-08-18T04:22:57;2.40;;;1.23;;
35977;SDS011;22056;0.000;0.000;2022-08-18T04:25:23;1.50;;;1.38;;
35977;SDS011;22056;0.000;0.000;2022-08-18T04:27:51;1.42;;;1.27;;
35977;SDS011;22056;0.000;0.000;2022-08-18T04:30:22;1.50;;;1.40;;
35977;SDS011;22056;0.000;0.000;2022-08-18T04:32:48;1.48;;;1.25;;
35977;SDS011;22056;0.000;0.000;2022-08-18T04:35:15;1.45;;;1.35;;
35977;SDS011;22056;0.000;0.000;2022-08-18T04:37:42;2.67;;;1.58;;
35977;SDS011;22056;0.000;0.000;2022-08-18T04:40:08;1.70;;;1.60;;
35977;SDS011;22056;0.000;0.000;2022-08-18T04:42:35;1.35;;;1.25;;
35977;SDS011;22056;0.000;0.000;2022-08-18T04:45:01;2.45;;;1.90;;
35977;SDS011;22056;0.000;0.000;2022-08-18T04:47:27;1.52;;;1.42;;
35977;SDS011;22056;0.000;0.000;2022-08-18T04:49:53;1.90;;;1.75;;
35977;SDS011;22056;0.000;0.000;2022-08-18T04:52:19;1.92;;;1.70;;
35977;SDS011;22056;0.000;0.000;2022-08-18T04:55:04;2.85;;;1.85;;
35977;SDS011;22056;0.000;0.000;2022-08-18T04:57:31;2.67;;;1.55;;
35977;SDS011;22056;0.000;0.000;2022-08-18T04:59:58;1.85;;;1.55;;
35977;SDS011;22056;0.000;0.000;2022-08-18T05:02:24;2.13;;;1.90;;
35977;SDS011;22056;0.000;0.000;2022-08-18T05:04:50;2.08;;;1.88;;
35977;SDS011;22056;0.000;0.000;2022-08-18T05:07:19;1.77;;;1.65;;
35977;SDS011;22056;0.000;0.000;2022-08-18T05:09:47;1.92;;;1.73;;
35977;SDS011;22056;0.000;0.000;2022-08-18T05:12:14;3.33;;;2.10;;
35977;SDS011;22056;0.000;0.000;2022-08-18T05:14:41;3.45;;;1.58;;
35977;SDS011;22056;0.000;0.000;2022-08-18T05:17:11;3.15;;;1.80;;
35977;SDS011;22056;0.000;0.000;2022-08-18T05:19:37;1.70;;;1.60;;
35977;SDS011;22056;0.000;0.000;2022-08-18T05:22:05;2.00;;;1.80;;
35977;SDS011;22056;0.000;0.000;2022-08-18T05:24:32;2.20;;;1.80;;
35977;SDS011;22056;0.000;0.000;2022-08-18T05:26:59;3.63;;;1.95;;
35977;SDS011;22056;0.000;0.000;2022-08-18T05:29:26;2.58;;;2.13;;
35977;SDS011;22056;0.000;0.000;2022-08-18T05:31:52;3.00;;;1.75;;
35977;SDS011;22056;0.000;0.000;2022-08-18T05:34:19;2.90;;;2.42;;
35977;SDS011;22056;0.000;0.000;2022-08-18T05:42:01;3.77;;;1.73;;
35977;SDS011;22056;0.000;0.000;2022-08-18T05:44:31;2.40;;;1.80;;
35977;SDS011;22056;0.000;0.000;2022-08-18T05:47:05;5.72;;;1.83;;
35977;SDS011;22056;0.000;0.000;2022-08-18T05:49:33;1.90;;;1.70;;
35977;SDS011;22056;0.000;0.000;2022-08-18T05:52:02;3.95;;;1.95;;
35977;SDS011;22056;0.000;0.000;2022-08-18T05:54:32;2.20;;;2.00;;
35977;SDS011;22056;0.000;0.000;2022-08-18T05:57:19;3.78;;;2.20;;
35977;SDS011;22056;0.000;0.000;2022-08-18T05:59:45;4.35;;;2.15;;
35977;SDS011;22056;0.000;0.000;2022-08-18T06:02:17;2.67;;;2.10;;
35977;SDS011;22056;0.000;0.000;2022-08-18T06:07:12;2.83;;;2.17;;
35977;SDS011;22056;0.000;0.000;2022-08-18T06:14:37;3.80;;;2.20;;
35977;SDS011;22056;0.000;0.000;2022-08-18T06:25:26;3.90;;;2.30;;
35977;SDS011;22056;0.000;0.000;2022-08-18T06:28:00;3.08;;;2.22;;
35977;SDS011;22056;0.000;0.000;2022-08-18T06:41:17;3.47;;;2.05;;
35977;SDS011;22056;0.000;0.000;2022-08-18T06:44:03;4.43;;;2.67;;
35977;SDS011;22056;0.000;0.000;2022-08-18T06:48:59;3.25;;;2.50;;
35977;SDS011;22056;0.000;0.000;2022-08-18T06:51:27;2.45;;;2.25;;
35977;SDS011;22056;0.000;0.000;2022-08-18T06:54:07;3.88;;;2.20;;
35977;SDS011;22056;0.000;0.000;2022-08-18T07:01:44;4.22;;;2.40;;
35977;SDS011;22056;0.000;0.000;2022-08-18T07:04:57;3.72;;;2.70;;
35977;SDS011;22056;0.000;0.000;2022-08-18T07:06:58;3.25;;;2.53;;
35977;SDS011;22056;0.000;0.000;2022-08-18T07:09:36;4.60;;;2.40;;
35977;SDS011;22056;0.000;0.000;2022-08-18T07:12:07;4.90;;;2.60;;
35977;SDS011;22056;0.000;0.000;2022-08-18T07:14:44;3.85;;;2.30;;
35977;SDS011;22056;0.000;0.000;2022-08-18T07:17:12;5.00;;;2.58;;
35977;SDS011;22056;0.000;0.000;2022-08-18T07:19:38;6.72;;;2.45;;
35977;SDS011;22056;0.000;0.000;2022-08-18T07:22:14;5.35;;;2.42;;
35977;SDS011;22056;0.000;0.000;2022-08-18T07:24:45;4.45;;;2.03;;
35977;SDS011;22056;0.000;0.000;2022-08-18T07:27:13;4.40;;;2.20;;
35977;SDS011;22056;0.000;0.000;2022-08-18T07:32:39;3.13;;;1.90;;
35977;SDS011;22056;0.000;0.000;2022-08-18T07:35:08;6.80;;;2.63;;
35977;SDS011;22056;0.000;0.000;2022-08-18T07:37:39;4.93;;;2.85;;
35977;SDS011;22056;0.000;0.000;2022-08-18T07:42:48;4.55;;;2.80;;
35977;SDS011;22056;0.000;0.000;2022-08-18T07:48:31;3.88;;;2.60;;
35977;SDS011;22056;0.000;0.000;2022-08-18T07:56:30;3.05;;;2.25;;
35977;SDS011;22056;0.000;0.000;2022-08-18T07:58:58;2.55;;;2.22;;
35977;SDS011;22056;0.000;0.000;2022-08-18T08:01:32;4.82;;;2.33;;
35977;SDS011;22056;0.000;0.000;2022-08-18T08:04:10;4.33;;;2.57;;
35977;SDS011;22056;0.000;0.000;2022-08-18T08:06:42;5.35;;;2.80;;
35977;SDS011;22056;0.000;0.000;2022-08-18T08:09:11;3.38;;;2.33;;
35977;SDS011;22056;0.000;0.000;2022-08-18T08:12:02;6.38;;;2.42;;
35977;SDS011;22056;0.000;0.000;2022-08-18T08:14:40;3.13;;;2.05;;
35977;SDS011;22056;0.000;0.000;2022-08-18T08:22:03;6.00;;;2.60;;
35977;SDS011;22056;0.000;0.000;2022-08-18T08:24:40;4.40;;;2.42;;
35977;SDS011;22056;0.000;0.000;2022-08-18T08:27:16;3.20;;;2.38;;
35977;SDS011;22056;0.000;0.000;2022-08-18T08:29:53;4.15;;;2.30;;
35977;SDS011;22056;0.000;0.000;2022-08-18T08:32:32;4.28;;;2.80;;
35977;SDS011;22056;0.000;0.000;2022-08-18T08:35:06;3.90;;;2.40;;
35977;SDS011;22056;0.000;0.000;2022-08-18T08:40:06;5.30;;;2.83;;
35977;SDS011;22056;0.000;0.000;2022-08-18T08:45:06;6.45;;;2.63;;
35977;SDS011;22056;0.000;0.000;2022-08-18T08:47:35;3.35;;;2.40;;
35977;SDS011;22056;0.000;0.000;2022-08-18T08:50:04;3.90;;;2.30;;
35977;SDS011;22056;0.000;0.000;2022-08-18T08:54:59;5.57;;;2.00;;
35977;SDS011;22056;0.000;0.000;2022-08-18T08:57:32;4.93;;;2.00;;
35977;SDS011;22056;0.000;0.000;2022-08-18T09:00:01;4.00;;;1.98;;
35977;SDS011;22056;0.000;0.000;2022-08-18T09:05:16;3.25;;;2.25;;
35977;SDS011;22056;0.000;0.000;2022-08-18T09:23:41;3.53;;;2.28;;
35977;SDS011;22056;0.000;0.000;2022-08-18T09:26:22;2.47;;;2.20;;
35977;SDS011;22056;0.000;0.000;2022-08-18T09:28:59;3.75;;;2.30;;
35977;SDS011;22056;0.000;0.000;2022-08-18T09:31:35;5.50;;;2.42;;
35977;SDS011;22056;0.000;0.000;2022-08-18T09:34:08;4.10;;;2.25;;
35977;SDS011;22056;0.000;0.000;2022-08-18T09:36:52;4.18;;;1.98;;
35977;SDS011;22056;0.000;0.000;2022-08-18T09:39:25;8.65;;;2.53;;
35977;SDS011;22056;0.000;0.000;2022-08-18T09:42:13;3.55;;;2.08;;
35977;SDS011;22056;0.000;0.000;2022-08-18T09:55:35;3.35;;;2.45;;
35977;SDS011;22056;0.000;0.000;2022-08-18T09:57:37;3.50;;;2.28;;
35977;SDS011;22056;0.000;0.000;2022-08-18T10:10:18;3.92;;;2.30;;
35977;SDS011;22056;0.000;0.000;2022-08-18T10:20:41;2.08;;;1.60;;
35977;SDS011;22056;0.000;0.000;2022-08-18T10:23:23;4.53;;;2.00;;
35977;SDS011;22056;0.000;0.000;2022-08-18T10:25:58;3.45;;;1.77;;
35977;SDS011;22056;0.000;0.000;2022-08-18T10:31:12;3.10;;;1.90;;
35977;SDS011;22056;0.000;0.000;2022-08-18T10:39:05;2.72;;;1.90;;
35977;SDS011;22056;0.000;0.000;2022-08-18T10:41:32;2.28;;;1.70;;
35977;SDS011;22056;0.000;0.000;2022-08-18T10:44:02;5.13;;;2.10;;
35977;SDS011;22056;0.000;0.000;2022-08-18T10:46:34;4.30;;;2.00;;
35977;SDS011;22056;0.000;0.000;2022-08-18T10:57:16;2.72;;;2.08;;
35977;SDS011;22056;0.000;0.000;2022-08-18T11:02:20;2.50;;;1.63;;
35977;SDS011;22056;0.000;0.000;2022-08-18T11:04:53;2.75;;;1.63;;
35977;SDS011;22056;0.000;0.000;2022-08-18T11:07:21;1.98;;;1.75;;
35977;SDS011;22056;0.000;0.000;2022-08-18T11:09:49;3.53;;;1.90;;
35977;SDS011;22056;0.000;0.000;2022-08-18T11:16:02;5.18;;;1.90;;
35977;SDS011;22056;0.000;0.000;2022-08-18T11:20:26;3.28;;;1.67;;
35977;SDS011;22056;0.000;0.000;2022-08-18T11:22:56;3.45;;;1.75;;
35977;SDS011;22056;0.000;0.000;2022-08-18T11:25:32;2.65;;;1.60;;
35977;SDS011;22056;0.000;0.000;2022-08-18T11:27:59;2.55;;;1.58;;
35977;SDS011;22056;0.000;0.000;2022-08-18T11:30:27;3.05;;;1.40;;
35977;SDS011;22056;0.000;0.000;2022-08-18T11:32:54;3.60;;;1.73;;
35977;SDS011;22056;0.000;0.000;2022-08-18T11:35:23;3.70;;;1.65;;
35977;SDS011;22056;0.000;0.000;2022-08-18T11:37:58;2.58;;;1.40;;
35977;SDS011;22056;0.000;0.000;2022-08-18T11:51:15;4.15;;;1.70;;
35977;SDS011;22056;0.000;0.000;2022-08-18T11:56:04;2.28;;;1.88;;
35977;SDS011;22056;0.000;0.000;2022-08-18T11:58:37;2.60;;;1.58;;
35977;SDS011;22056;0.000;0.000;2022-08-18T12:01:03;3.38;;;1.80;;
35977;SDS011;22056;0.000;0.000;2022-08-18T12:03:43;2.17;;;1.52;;
35977;SDS011;22056;0.000;0.000;2022-08-18T12:06:11;3.50;;;1.70;;
35977;SDS011;22056;0.000;0.000;2022-08-18T12:08:50;5.65;;;2.03;;
35977;SDS011;22056;0.000;0.000;2022-08-18T12:11:19;4.32;;;1.67;;
35977;SDS011;22056;0.000;0.000;2022-08-18T12:13:47;4.68;;;1.75;;
35977;SDS011;22056;0.000;0.000;2022-08-18T12:16:33;5.10;;;1.58;;
35977;SDS011;22056;0.000;0.000;2022-08-18T12:18:59;4.95;;;1.80;;
35977;SDS011;22056;0.000;0.000;2022-08-18T12:21:26;4.53;;;1.60;;
35977;SDS011;22056;0.000;0.000;2022-08-18T12:23:52;3.38;;;1.50;;
35977;SDS011;22056;0.000;0.000;2022-08-18T12:26:18;5.70;;;1.60;;
35977;SDS011;22056;0.000;0.000;2022-08-18T12:28:45;6.85;;;2.10;;
35977;SDS011;22056;0.000;0.000;2022-08-18T12:31:11;5.80;;;1.85;;
35977;SDS011;22056;0.000;0.000;2022-08-18T12:33:37;4.15;;;1.67;;
35977;SDS011;22056;0.000;0.000;2022-08-18T12:36:04;5.47;;;2.00;;
35977;SDS011;22056;0.000;0.000;2022-08-18T12:38:30;4.00;;;1.25;;
35977;SDS011;22056;0.000;0.000;2022-08-18T12:40:57;5.22;;;1.63;;
35977;SDS011;22056;0.000;0.000;2022-08-18T12:43:23;4.25;;;1.85;;
35977;SDS011;22056;0.000;0.000;2022-08-18T12:45:50;2.15;;;1.63;;
35977;SDS011;22056;0.000;0.000;2022-08-18T12:48:17;4.30;;;1.80;;
35977;SDS011;22056;0.000;0.000;2022-08-18T12:50:43;5.07;;;1.70;;
35977;SDS011;22056;0.000;0.000;2022-08-18T12:53:10;7.32;;;1.75;;
35977;SDS011;22056;0.000;0.000;2022-08-18T12:55:39;19.55;;;2.53;;
35977;SDS011;22056;0.000;0.000;2022-08-18T12:58:06;15.43;;;2.60;;
35977;SDS011;22056;0.000;0.000;2022-08-18T13:00:33;8.70;;;2.28;;
35977;SDS011;22056;0.000;0.000;2022-08-18T13:02:59;7.80;;;2.15;;
35977;SDS011;22056;0.000;0.000;2022-08-18T13:05:26;10.10;;;2.33;;
35977;SDS011;22056;0.000;0.000;2022-08-18T13:07:53;8.57;;;1.70;;
35977;SDS011;22056;0.000;0.000;2022-08-18T13:10:19;3.65;;;1.70;;
35977;SDS011;22056;0.000;0.000;2022-08-18T13:12:46;11.55;;;2.33;;
35977;SDS011;22056;0.000;0.000;2022-08-18T13:15:12;12.43;;;2.22;;
35977;SDS011;22056;0.000;0.000;2022-08-18T13:17:38;5.00;;;1.90;;
35977;SDS011;22056;0.000;0.000;2022-08-18T13:20:06;7.40;;;2.17;;
35977;SDS011;22056;0.000;0.000;2022-08-18T13:22:34;8.40;;;2.08;;
35977;SDS011;22056;0.000;0.000;2022-08-18T13:25:01;3.92;;;1.90;;
35977;SDS011;22056;0.000;0.000;2022-08-18T13:27:29;9.45;;;2.42;;
35977;SDS011;22056;0.000;0.000;2022-08-18T13:29:55;6.88;;;1.90;;
35977;SDS011;22056;0.000;0.000;2022-08-18T13:32:21;8.23;;;2.38;;
35977;SDS011;22056;0.000;0.000;2022-08-18T13:34:50;8.23;;;2.20;;
35977;SDS011;22056;0.000;0.000;2022-08-18T13:37:16;5.28;;;2.20;;
35977;SDS011;22056;0.000;0.000;2022-08-18T13:39:43;4.35;;;1.75;;
35977;SDS011;22056;0.000;0.000;2022-08-18T13:42:09;5.50;;;1.73;;
35977;SDS011;22056;0.000;0.000;2022-08-18T13:44:35;5.47;;;2.00;;
35977;SDS011;22056;0.000;0.000;2022-08-18T13:47:04;7.00;;;1.70;;
35977;SDS011;22056;0.000;0.000;2022-08-18T13:49:30;6.53;;;2.45;;
35977;SDS011;22056;0.000;0.000;2022-08-18T13:51:56;7.40;;;2.20;;
35977;SDS011;22056;0.000;0.000;2022-08-18T13:54:24;4.55;;;1.90;;
35977;SDS011;22056;0.000;0.000;2022-08-18T13:56:52;3.47;;;2.00;;
35977;SDS011;22056;0.000;0.000;2022-08-18T13:59:21;4.18;;;1.73;;
35977;SDS011;22056;0.000;0.000;2022-08-18T14:01:48;5.82;;;2.15;;
35977;SDS011;22056;0.000;0.000;2022-08-18T14:04:15;2.55;;;1.40;;
35977;SDS011;22056;0.000;0.000;2022-08-18T14:06:42;5.13;;;1.90;;
35977;SDS011;22056;0.000;0.000;2022-08-18T14:09:08;4.90;;;1.85;;
35977;SDS011;22056;0.000;0.000;2022-08-18T14:11:35;4.88;;;1.65;;
35977;SDS011;22056;0.000;0.000;2022-08-18T14:14:03;5.60;;;1.73;;
35977;SDS011;22056;0.000;0.000;2022-08-18T14:16:30;4.35;;;1.73;;
35977;SDS011;22056;0.000;0.000;2022-08-18T14:18:57;7.22;;;2.33;;
35977;SDS011;22056;0.000;0.000;2022-08-18T14:21:46;6.22;;;2.28;;
35977;SDS011;22056;0.000;0.000;2022-08-18T14:24:32;5.97;;;1.92;;
35977;SDS011;22056;0.000;0.000;2022-08-18T14:27:18;11.63;;;2.10;;
35977;SDS011;22056;0.000;0.000;2022-08-18T14:29:44;8.23;;;2.03;;
35977;SDS011;22056;0.000;0.000;2022-08-18T14:32:12;8.20;;;2.05;;
35977;SDS011;22056;0.000;0.000;2022-08-18T14:34:39;4.00;;;1.98;;
35977;SDS011;22056;0.000;0.000;2022-08-18T14:37:06;6.93;;;2.03;;
35977;SDS011;22056;0.000;0.000;2022-08-18T14:39:32;4.70;;;1.50;;
35977;SDS011;22056;0.000;0.000;2022-08-18T14:41:58;4.05;;;1.63;;
35977;SDS011;22056;0.000;0.000;2022-08-18T14:44:25;5.50;;;1.80;;
35977;SDS011;22056;0.000;0.000;2022-08-18T14:46:51;5.75;;;1.92;;
35977;SDS011;22056;0.000;0.000;2022-08-18T14:49:17;4.93;;;1.70;;
35977;SDS011;22056;0.000;0.000;2022-08-18T14:51:45;7.20;;;2.20;;
35977;SDS011;22056;0.000;0.000;2022-08-18T14:54:12;11.07;;;2.33;;
35977;SDS011;22056;0.000;0.000;2022-08-18T14:56:38;5.88;;;1.88;;
35977;SDS011;22056;0.000;0.000;2022-08-18T14:59:04;8.85;;;2.00;;
35977;SDS011;22056;0.000;0.000;2022-08-18T15:01:35;3.60;;;2.28;;
35977;SDS011;22056;0.000;0.000;2022-08-18T15:04:02;5.53;;;2.25;;
35977;SDS011;22056;0.000;0.000;2022-08-18T15:06:29;3.65;;;1.80;;
35977;SDS011;22056;0.000;0.000;2022-08-18T15:08:55;5.82;;;1.85;;
35977;SDS011;22056;0.000;0.000;2022-08-18T15:11:22;5.80;;;2.05;;
35977;SDS011;22056;0.000;0.000;2022-08-18T15:13:48;6.65;;;1.77;;
35977;SDS011;22056;0.000;0.000;2022-08-18T15:16:15;6.47;;;2.03;;
35977;SDS011;22056;0.000;0.000;2022-08-18T15:18:42;7.35;;;2.03;;
35977;SDS011;22056;0.000;0.000;2022-08-18T15:21:09;6.90;;;2.05;;
35977;SDS011;22056;0.000;0.000;2022-08-18T15:23:53;6.05;;;1.98;;
35977;SDS011;22056;0.000;0.000;2022-08-18T15:26:38;4.95;;;1.90;;
35977;SDS011;22056;0.000;0.000;2022-08-18T15:29:06;4.30;;;1.50;;
35977;SDS011;22056;0.000;0.000;2022-08-18T15:31:34;5.70;;;1.98;;
35977;SDS011;22056;0.000;0.000;2022-08-18T15:34:00;8.57;;;2.10;;
35977;SDS011;22056;0.000;0.000;2022-08-18T15:36:27;2.47;;;1.60;;
35977;SDS011;22056;0.000;0.000;2022-08-18T15:38:56;6.97;;;1.88;;
35977;SDS011;22056;0.000;0.000;2022-08-18T15:41:33;5.20;;;1.92;;
35977;SDS011;22056;0.000;0.000;2022-08-18T15:44:01;4.75;;;2.20;;
35977;SDS011;22056;0.000;0.000;2022-08-18T15:46:28;7.05;;;2.20;;
35977;SDS011;22056;0.000;0.000;2022-08-18T15:48:56;6.82;;;2.00;;
35977;SDS011;22056;0.000;0.000;2022-08-18T15:51:22;5.30;;;1.75;;
35977;SDS011;22056;0.000;0.000;2022-08-18T15:53:48;4.45;;;1.83;;
35977;SDS011;22056;0.000;0.000;2022-08-18T15:56:19;6.18;;;2.10;;
35977;SDS011;22056;0.000;0.000;2022-08-18T15:58:46;4.88;;;2.28;;
35977;SDS011;22056;0.000;0.000;2022-08-18T16:01:13;10.32;;;2.28;;
35977;SDS011;22056;0.000;0.000;2022-08-18T16:03:40;7.50;;;2.30;;
35977;SDS011;22056;0.000;0.000;2022-08-18T16:06:10;12.52;;;2.67;;
35977;SDS011;22056;0.000;0.000;2022-08-18T16:08:37;6.70;;;2.22;;
35977;SDS011;22056;0.000;0.000;2022-08-18T16:11:10;6.20;;;2.00;;
35977;SDS011;22056;0.000;0.000;2022-08-18T16:13:36;7.85;;;2.25;;
35977;SDS011;22056;0.000;0.000;2022-08-18T16:16:10;7.55;;;2.00;;
35977;SDS011;22056;0.000;0.000;2022-08-18T16:18:36;2.63;;;1.65;;
35977;SDS011;22056;0.000;0.000;2022-08-18T16:21:04;5.15;;;2.10;;
35977;SDS011;22056;0.000;0.000;2022-08-18T16:23:34;5.85;;;1.88;;
35977;SDS011;22056;0.000;0.000;2022-08-18T16:26:00;4.50;;;1.75;;
35977;SDS011;22056;0.000;0.000;2022-08-18T16:28:26;7.82;;;2.00;;
35977;SDS011;22056;0.000;0.000;2022-08-18T16:30:53;5.22;;;1.98;;
35977;SDS011;22056;0.000;0.000;2022-08-18T16:33:19;8.10;;;2.20;;
35977;SDS011;22056;0.000;0.000;2022-08-18T16:35:46;9.23;;;2.83;;
35977;SDS011;22056;0.000;0.000;2022-08-18T16:38:14;7.78;;;2.50;;
35977;SDS011;22056;0.000;0.000;2022-08-18T16:40:40;13.35;;;2.78;;
35977;SDS011;22056;0.000;0.000;2022-08-18T16:43:06;7.20;;;2.10;;
35977;SDS011;22056;0.000;0.000;2022-08-18T16:45:35;5.95;;;2.10;;
35977;SDS011;22056;0.000;0.000;2022-08-18T16:48:01;8.05;;;2.17;;
35977;SDS011;22056;0.000;0.000;2022-08-18T16:50:28;8.38;;;2.20;;
35977;SDS011;22056;0.000;0.000;2022-08-18T16:52:54;7.18;;;2.50;;
35977;SDS011;22056;0.000;0.000;2022-08-18T16:55:22;6.00;;;2.15;;
35977;SDS011;22056;0.000;0.000;2022-08-18T16:57:48;4.85;;;2.38;;
35977;SDS011;22056;0.000;0.000;2022-08-18T17:00:34;8.68;;;2.35;;
35977;SDS011;22056;0.000;0.000;2022-08-18T17:03:18;5.05;;;1.60;;
35977;SDS011;22056;0.000;0.000;2022-08-18T17:06:04;7.57;;;2.20;;
35977;SDS011;22056;0.000;0.000;2022-08-18T17:08:31;9.82;;;2.10;;
35977;SDS011;22056;0.000;0.000;2022-08-18T17:10:59;4.55;;;1.50;;
35977;SDS011;22056;0.000;0.000;2022-08-18T17:13:25;5.05;;;1.98;;
35977;SDS011;22056;0.000;0.000;2022-08-18T17:15:51;5.07;;;2.38;;
35977;SDS011;22056;0.000;0.000;2022-08-18T17:18:17;10.10;;;2.08;;
35977;SDS011;22056;0.000;0.000;2022-08-18T17:20:44;6.45;;;2.10;;
35977;SDS011;22056;0.000;0.000;2022-08-18T17:23:11;5.03;;;1.90;;
35977;SDS011;22056;0.000;0.000;2022-08-18T17:25:37;6.15;;;2.13;;
35977;SDS011;22056;0.000;0.000;2022-08-18T17:28:04;6.00;;;1.70;;
35977;SDS011;22056;0.000;0.000;2022-08-18T17:30:31;6.95;;;2.03;;
35977;SDS011;22056;0.000;0.000;2022-08-18T17:33:00;4.72;;;1.80;;
35977;SDS011;22056;0.000;0.000;2022-08-18T17:35:34;4.53;;;1.85;;
35977;SDS011;22056;0.000;0.000;2022-08-18T17:38:09;3.80;;;1.67;;
35977;SDS011;22056;0.000;0.000;2022-08-18T17:40:39;3.88;;;1.50;;
35977;SDS011;22056;0.000;0.000;2022-08-18T17:43:09;5.63;;;1.77;;
35977;SDS011;22056;0.000;0.000;2022-08-18T17:45:36;3.95;;;1.80;;
35977;SDS011;22056;0.000;0.000;2022-08-18T17:50:44;6.70;;;2.20;;